Latest Weather Observations for Bellambi

IDN60901

Issued at 11:31 pm EST Wednesday 14 April 2021 (issued every 10 minutes, with the page automatically refreshed every 10 minutes)

About weather observations | Map of Sydney area stations | Latest observations for Sydney area | Other Formats
Station Details ID: 068228 Name: BELLAMBI AWS Lat: -34.37 Lon: 150.93 Height: 10.0 m
Data from the previous 72 hours. | See also: Recent months at Bellambi
Date/Time
EST
Temp
°C
App
Temp
°C
Dew
Point
°C
Rel
Hum
%
Delta-T
°C
Wind Press
QNH
hPa
Press
MSL
hPa
Rain since
9am
mm
Dir  Spd
km/h
Gust
km/h
Spd
kts
Gust
kts
14/11:30pm 22.1 18.0 2.2 27 9.3 SSW 13 20 7 11 - - 0.0
14/11:00pm 21.9 18.7 3.1 29 9.0 SW 9 20 5 11 - - 0.0
14/10:30pm 21.8 18.9 8.0 41 7.2 E 13 19 7 10 - - 0.0
14/10:12pm 21.7 14.1 2.9 29 8.9 WNW 32 56 17 30 - - 0.0
14/10:09pm 22.0 13.1 3.2 29 9.0 NW 39 57 21 31 - - 0.0
14/10:00pm 21.8 12.8 4.4 32 8.5 NW 41 57 22 31 - - 0.0
14/09:59pm 21.8 13.1 3.9 31 8.7 NW 39 57 21 31 - - 0.0
14/09:30pm 22.4 14.0 3.5 29 9.1 NW 37 48 20 26 - - 0.0
14/09:12pm 22.6 15.9 3.7 29 9.2 NW 28 46 15 25 - - 0.0
14/09:00pm 22.3 16.4 3.9 30 8.9 NW 24 32 13 17 - - 0.0
14/08:30pm 22.6 17.8 4.6 31 8.9 NW 19 24 10 13 - - 0.0
14/08:00pm 23.8 17.8 3.2 26 10.0 WNW 24 32 13 17 - - 0.0
14/07:30pm 24.4 19.0 2.5 24 10.5 WNW 20 35 11 19 - - 0.0
14/07:00pm 24.7 19.8 2.2 23 10.8 WNW 17 26 9 14 - - 0.0
14/06:30pm 24.2 21.2 1.8 23 10.6 W 7 13 4 7 - - 0.0
14/06:00pm 24.8 21.4 1.7 22 11.0 WSW 9 19 5 10 - - 0.0
14/05:30pm 25.2 21.4 2.0 22 11.1 WNW 11 24 6 13 - - 0.0
14/05:00pm 24.1 23.5 11.8 46 7.0 N 6 13 3 7 - - 0.0
14/04:30pm 24.5 23.2 12.5 47 6.9 NNE 11 15 6 8 - - 0.0
14/04:00pm 25.0 24.2 12.9 47 7.0 N 9 15 5 8 - - 0.0
14/03:30pm 24.5 22.2 13.1 49 6.6 NNE 17 22 9 12 - - 0.0
14/03:00pm 25.0 22.3 11.6 43 7.6 NNE 17 22 9 12 - - 0.0
14/02:30pm 24.1 22.6 14.2 54 5.8 NNE 15 20 8 11 - - 0.0
14/02:00pm 23.5 21.0 12.2 49 6.4 NNE 17 22 9 12 - - 0.0
14/01:30pm 22.8 19.4 12.4 52 5.9 NNE 22 28 12 15 - - 0.0
14/01:00pm 22.9 19.8 12.2 51 6.1 NE 20 26 11 14 - - 0.0
14/12:30pm 23.1 19.8 12.7 52 6.0 NE 22 28 12 15 - - 0.0
14/12:00pm 22.9 19.5 12.5 52 5.9 NE 22 28 12 15 - - 0.0
14/11:30am 22.5 18.4 11.6 50 6.1 NE 24 28 13 15 - - 0.0
14/11:00am 21.2 18.2 10.7 51 5.7 NNE 17 22 9 12 - - 0.0
14/10:30am 20.3 17.6 8.9 48 6.0 NNE 13 20 7 11 - - 0.0
14/10:00am 20.1 17.1 9.1 49 5.8 NNE 15 19 8 10 - - 0.0
14/09:30am 19.8 17.7 8.2 47 6.0 NNW 9 15 5 8 - - 0.0
14/09:00am 19.9 16.4 7.3 44 6.4 N 15 19 8 10 - - 0.0
14/08:30am 19.9 18.2 7.6 45 6.3 SSW 6 7 3 4 - - 0.0
14/08:00am 20.2 18.1 6.5 41 6.9 SW 7 13 4 7 - - 0.0
14/07:30am 20.5 18.1 6.8 41 6.9 NNE 9 17 5 9 - - 0.0
14/07:00am 20.6 17.7 4.6 35 7.8 N 9 17 5 9 - - 0.0
14/06:30am 20.0 15.9 6.4 41 6.8 NNE 17 28 9 15 - - 0.0
14/06:00am 19.4 15.7 6.2 42 6.6 N 15 20 8 11 - - 0.0
14/05:30am 19.3 14.7 5.7 41 6.7 N 19 24 10 13 - - 0.0
14/05:00am 18.8 15.5 8.2 50 5.5 N 15 20 8 11 - - 0.0
14/04:30am 18.2 14.9 7.9 51 5.3 NNW 15 20 8 11 - - 0.0
14/04:00am 17.3 15.4 7.4 52 5.0 NW 7 13 4 7 - - 0.0
14/03:30am 16.5 14.7 7.2 54 4.6 SW 6 9 3 5 - - 0.0
14/03:00am 17.1 15.7 9.5 61 4.0 ENE 7 15 4 8 - - 0.0
14/02:30am 16.6 15.8 9.5 63 3.7 SW 4 11 2 6 - - 0.0
14/02:00am 16.6 14.8 7.8 56 4.4 W 7 13 4 7 - - 0.0
14/01:30am 18.1 16.2 7.5 50 5.4 NE 7 13 4 7 - - 0.0
14/01:00am 17.5 16.2 9.2 58 4.3 SSE 6 17 3 9 - - 0.0
14/12:30am 17.4 15.7 8.5 56 4.6 SSW 7 15 4 8 - - 0.0
14/12:00am 18.1 16.5 8.7 54 4.9 WSW 7 17 4 9 - - 0.0
 
Date/Time
EST
Temp
°C
App
Temp
°C
Dew
Point
°C
Rel
Hum
%
Delta-T
°C
Wind Press
QNH
hPa
Press
MSL
hPa
Rain since
9am
mm
Dir  Spd
km/h
Gust
km/h
Spd
kts
Gust
kts
13/11:30pm 17.7 17.1 9.1 57 4.5 ESE 2 7 1 4 - - 0.0
13/11:00pm 18.0 16.7 9.9 59 4.3 W 7 19 4 10 - - 0.0
13/10:30pm 17.6 15.9 10.0 61 4.0 WNW 9 15 5 8 - - 0.0
13/10:00pm 19.0 15.8 11.1 60 4.3 N 19 24 10 13 - - 0.0
13/09:30pm 18.4 16.0 12.6 69 3.2 NNW 17 20 9 11 - - 0.0
13/09:00pm 17.9 16.2 12.4 70 3.1 NW 13 17 7 9 - - 0.0
13/08:30pm 18.6 16.2 12.8 69 3.3 NNW 17 20 9 11 - - 0.0
13/08:00pm 19.0 16.4 13.2 69 3.3 N 19 22 10 12 - - 0.0
13/07:30pm 18.8 16.8 12.8 68 3.4 N 15 24 8 13 - - 0.0
13/07:00pm 19.2 16.2 12.7 66 3.6 NNE 20 24 11 13 - - 0.0
13/06:30pm 19.5 16.3 13.0 66 3.7 N 22 28 12 15 - - 0.0
13/06:00pm 19.6 16.0 13.1 66 3.7 NNE 24 32 13 17 - - 0.0
13/05:30pm 19.8 15.1 13.3 66 3.7 NNE 30 35 16 19 - - 0.0
13/05:00pm 20.1 15.2 13.6 66 3.7 NE 32 39 17 21 - - 0.0
13/04:30pm 20.2 15.0 12.7 62 4.2 NE 32 39 17 21 - - 0.0
13/04:00pm 20.5 15.6 12.7 61 4.4 NE 30 37 16 20 - - 0.0
13/03:30pm 20.7 15.4 12.4 59 4.7 NE 32 35 17 19 - - 0.0
13/03:00pm 20.8 15.6 11.7 56 5.1 NE 30 37 16 20 - - 0.0
13/02:30pm 21.1 17.2 12.0 56 5.1 ENE 24 30 13 16 - - 0.0
13/02:00pm 21.2 17.8 11.2 53 5.5 NE 20 24 11 13 - - 0.0
13/01:30pm 21.0 17.7 11.6 55 5.2 NE 20 24 11 13 - - 0.0
13/01:00pm 20.9 17.9 9.2 47 6.2 NNE 15 20 8 11 - - 0.0
13/12:30pm 20.7 17.4 9.6 49 5.9 NE 17 20 9 11 - - 0.0
13/12:00pm 20.3 16.9 9.2 49 5.9 ENE 17 22 9 12 - - 0.0
13/11:30am 20.4 17.6 8.7 47 6.1 ENE 13 17 7 9 - - 0.0
13/11:00am 20.1 17.2 8.1 46 6.2 ENE 13 19 7 10 - - 0.0
13/10:30am 19.8 17.4 8.5 48 5.9 E 11 13 6 7 - - 0.0
13/10:00am 19.4 16.8 6.2 42 6.6 ESE 9 11 5 6 - - 0.0
13/09:30am 18.6 16.1 6.4 45 6.1 SSE 9 11 5 6 - - 0.0
13/09:00am 18.3 16.2 6.5 46 5.9 S 7 11 4 6 - - 0.0
13/08:30am 17.5 14.9 6.1 47 5.6 WSW 9 11 5 6 - - 0.0
13/08:00am 16.5 13.6 6.6 52 4.9 WSW 11 15 6 8 - - 0.0
13/07:30am 15.5 12.4 5.7 52 4.7 SW 11 15 6 8 - - 0.0
13/07:00am 14.3 10.8 5.4 55 4.2 WSW 13 17 7 9 - - 0.0
13/06:30am 13.6 9.9 4.7 55 4.1 WSW 13 17 7 9 - - 0.0
13/06:00am 13.4 9.9 5.3 58 3.8 WSW 13 17 7 9 - - 0.0
13/05:30am 13.5 10.1 5.7 59 3.7 WSW 13 19 7 10 - - 0.0
13/05:00am 13.4 10.0 6.0 61 3.5 WSW 13 17 7 9 - - 0.0
13/04:30am 13.7 10.0 6.3 61 3.5 WSW 15 19 8 10 - - 0.0
13/04:00am 13.7 10.1 6.8 63 3.3 SW 15 19 8 10 - - 0.0
13/03:30am 14.1 11.0 7.4 64 3.3 WSW 13 17 7 9 - - 0.0
13/03:00am 14.3 10.6 8.0 66 3.1 SW 17 22 9 12 - - 0.0
13/02:30am 14.3 11.1 8.5 68 2.9 SW 15 19 8 10 - - 0.0
13/02:00am 14.7 11.6 8.9 68 2.9 SW 15 19 8 10 - - 0.0
13/01:30am 14.7 12.1 9.3 70 2.8 WSW 13 19 7 10 - - 0.0
13/01:00am 14.2 11.9 9.0 71 2.6 SW 11 15 6 8 - - 0.0
13/12:30am 14.0 11.6 8.8 71 2.6 WSW 11 13 6 7 - - 0.0
13/12:00am 14.2 11.9 9.0 71 2.6 WSW 11 15 6 8 - - 0.0
 
Date/Time
EST
Temp
°C
App
Temp
°C
Dew
Point
°C
Rel
Hum
%
Delta-T
°C
Wind Press
QNH
hPa
Press
MSL
hPa
Rain since
9am
mm
Dir  Spd
km/h
Gust
km/h
Spd
kts
Gust
kts
12/11:30pm 14.5 11.4 8.9 69 2.8 SW 15 17 8 9 - - 0.0
12/11:00pm 14.4 11.9 8.4 67 3.0 WSW 11 13 6 7 - - 0.0
12/10:30pm 14.3 11.9 8.5 68 2.9 SW 11 17 6 9 - - 0.0
12/10:00pm 14.8 12.0 8.5 66 3.2 W 13 15 7 8 - - 0.0
12/09:30pm 15.4 12.9 8.2 62 3.6 W 11 13 6 7 - - 0.0
12/09:00pm 15.3 12.7 7.6 60 3.8 WSW 11 15 6 8 - - 0.0
12/08:30pm 15.5 12.4 7.3 58 4.1 WSW 13 17 7 9 - - 0.0
12/08:00pm 15.4 12.4 7.7 60 3.8 WSW 13 17 7 9 - - 0.0
12/07:30pm 15.0 12.3 7.5 61 3.7 WSW 11 13 6 7 - - 0.0
12/07:00pm 14.6 11.9 7.2 61 3.6 WSW 11 15 6 8 - - 0.0
12/06:30pm 15.1 12.7 6.9 58 4.0 WSW 9 11 5 6 - - 0.0
12/06:00pm 15.8 13.3 6.5 54 4.5 SSW 9 13 5 7 - - 0.0
12/05:30pm 17.9 15.5 7.0 49 5.4 SSE 9 13 5 7 - - 0.0
12/05:00pm 18.1 15.6 5.0 42 6.3 SE 7 11 4 6 - - 0.0
12/04:30pm 18.5 16.0 6.7 46 5.9 SE 9 15 5 8 - - 0.0
12/04:00pm 19.1 16.0 5.6 41 6.6 SSE 11 13 6 7 - - 0.0
12/03:30pm 19.0 15.7 4.4 38 7.0 SSE 11 17 6 9 - - 0.0
12/03:00pm 19.3 16.1 8.3 49 5.7 SSE 15 20 8 11 - - 0.0
12/02:30pm 19.2 15.2 4.9 39 6.9 SSE 15 19 8 10 - - 0.0
12/02:00pm 19.3 14.9 4.6 38 7.1 SSE 17 22 9 12 - - 0.0
12/01:30pm 19.4 15.1 5.1 39 7.0 S 17 22 9 12 - - 0.0
12/01:00pm 19.2 16.1 5.6 41 6.7 S 11 19 6 10 - - 0.0
12/12:30pm 18.7 13.7 4.8 40 6.7 S 20 28 11 15 - - 0.0
12/12:00pm 18.4 12.1 3.5 37 7.0 S 26 33 14 18 - - 0.0
12/11:30am 18.2 12.5 4.7 41 6.5 S 24 37 13 20 - - 0.0
12/11:00am 17.8 11.7 2.9 37 6.9 SSW 24 33 13 18 - - 0.0
12/10:30am 17.3 11.2 4.6 43 6.0 SSW 26 39 14 21 - - 0.0
12/10:00am 17.2 11.1 2.8 38 6.6 SSW 24 33 13 18 - - 0.0
12/09:30am 16.7 10.9 2.3 38 6.5 SW 22 32 12 17 - - 0.0
12/09:00am 15.6 9.8 2.1 40 6.0 WSW 22 32 12 17 - - 0.0
12/08:30am 14.9 9.4 1.8 41 5.7 WSW 20 30 11 16 - - 0.0
12/08:00am 14.2 8.6 1.5 42 5.5 W 20 30 11 16 - - 0.0
12/07:30am 13.3 8.4 1.9 46 4.9 W 17 22 9 12 - - 0.0
12/07:00am 12.7 7.8 1.7 47 4.7 W 17 24 9 13 - - 0.0
12/06:30am 12.1 6.7 1.4 48 4.5 W 19 28 10 15 - - 0.0
12/06:00am 12.3 6.9 1.3 47 4.7 W 19 32 10 17 - - 0.0
12/05:30am 12.4 7.0 1.4 47 4.7 WSW 19 28 10 15 - - 0.0
12/05:00am 12.2 7.2 1.2 47 4.6 WSW 17 24 9 13 - - 0.0
12/04:30am 12.2 7.2 1.5 48 4.5 W 17 24 9 13 - - 0.0
12/04:00am 12.4 7.4 1.4 47 4.7 W 17 26 9 14 - - 0.0
12/03:30am 12.4 7.4 1.4 47 4.7 W 17 24 9 13 - - 0.0
12/03:00am 12.7 7.8 1.7 47 4.7 W 17 26 9 14 - - 0.0
12/02:30am 12.9 7.6 1.9 47 4.7 WSW 19 28 10 15 - - 0.0
12/02:00am 13.2 6.9 1.8 46 4.9 WSW 24 39 13 21 - - 0.0
12/01:30am 13.4 6.4 2.0 46 5.0 WSW 28 41 15 22 - - 0.0
12/01:20am 13.5 6.5 1.8 45 5.1 WSW 28 46 15 25 - - 0.0
12/01:00am 13.5 6.5 2.1 46 5.0 WSW 28 43 15 23 - - 0.0
12/12:30am 13.6 6.3 2.2 46 5.0 WSW 30 43 16 23 - - 0.0
12/12:00am 13.6 7.0 2.2 46 5.0 W 26 44 14 24 - - 0.0

Latest Capital City Observations: Canberra | Sydney | Melbourne | Brisbane | Adelaide | Perth | Hobart | Darwin

Other formats

Comma delimited format used in spreadsheet applications
http://www.bom.gov.au/fwo/IDN60901/IDN60901.94749.axf

JavaScript Object Notation format (JSON) in row-major order
http://www.bom.gov.au/fwo/IDN60901/IDN60901.94749.json

Data quality

Most of these data are generated automatically and are frequently updated. Quality checks on data are not normally performed. It is possible for incorrect values to appear. Refer to information at About Latest Weather Observations and please check the disclaimer before using these data.